createdAt,value
2018-12-22T00:00:44.258Z,99130.18
2018-12-22T00:01:50.552Z,99128.12
2018-12-22T00:02:56.825Z,99128.97
2018-12-22T00:04:03.135Z,99129.68
2018-12-22T00:05:09.112Z,99126.94
2018-12-22T00:06:15.455Z,99138.91
2018-12-22T00:07:21.755Z,99138.17
2018-12-22T00:08:28.022Z,99135.33
2018-12-22T00:09:34.442Z,99141.95
2018-12-22T00:10:40.746Z,99141.50
2018-12-22T00:11:47.021Z,99140.95
2018-12-22T00:12:53.336Z,99145.30
2018-12-22T00:13:59.636Z,99137.98
2018-12-22T00:15:05.568Z,99147.27
2018-12-22T00:16:11.906Z,99146.20
2018-12-22T00:17:18.163Z,99153.16
2018-12-22T00:18:24.464Z,99155.20
2018-12-22T00:19:30.748Z,99152.15
2018-12-22T00:20:37.038Z,99159.31
2018-12-22T00:21:43.000Z,99150.59
2018-12-22T00:22:49.259Z,99157.00
2018-12-22T00:23:55.519Z,99161.73
2018-12-22T00:25:01.846Z,99159.33
2018-12-22T00:26:07.793Z,99165.06
2018-12-22T00:27:14.065Z,99164.26
2018-12-22T00:28:22.335Z,99159.23
2018-12-22T00:29:26.499Z,99152.79
2018-12-22T00:30:32.747Z,99169.22
2018-12-22T00:31:39.087Z,99165.70
2018-12-22T00:32:45.413Z,99171.67
2018-12-22T00:33:51.690Z,99167.06
2018-12-22T00:34:57.966Z,99181.01
2018-12-22T00:36:04.268Z,99165.77
2018-12-22T00:37:10.554Z,99169.27
2018-12-22T00:38:16.901Z,99175.54
2018-12-22T00:39:23.200Z,99174.33
2018-12-22T00:40:29.529Z,99180.97
2018-12-22T00:41:35.861Z,99186.56
2018-12-22T00:42:42.148Z,99175.30
2018-12-22T00:43:48.481Z,99184.92
2018-12-22T00:44:54.794Z,99178.39
2018-12-22T00:46:01.170Z,99180.14
2018-12-22T00:47:07.501Z,99181.09
2018-12-22T00:48:13.819Z,99183.57
2018-12-22T00:49:20.081Z,99175.50
2018-12-22T00:50:26.370Z,99177.22
2018-12-22T00:51:32.685Z,99182.02
2018-12-22T00:52:38.996Z,99188.67
2018-12-22T00:53:45.268Z,99185.27
2018-12-22T00:54:51.568Z,99181.64
2018-12-22T00:55:58.421Z,99187.20
2018-12-22T00:57:04.750Z,99192.40
2018-12-22T00:58:11.003Z,99189.19
2018-12-22T00:59:17.287Z,99194.08
2018-12-22T01:00:23.583Z,99190.60
2018-12-22T01:01:29.911Z,99194.12
2018-12-22T01:02:36.224Z,99194.31
2018-12-22T01:03:42.535Z,99200.03
2018-12-22T01:04:48.804Z,99202.88
2018-12-22T01:05:55.124Z,99197.97
2018-12-22T01:07:01.437Z,99199.36
2018-12-22T01:08:07.729Z,99205.75
2018-12-22T01:09:14.004Z,99205.63
2018-12-22T01:10:20.019Z,99209.83
2018-12-22T01:11:26.367Z,99209.97
2018-12-22T01:12:32.684Z,99210.33
2018-12-22T01:13:38.648Z,99212.73
2018-12-22T01:14:44.949Z,99212.39
2018-12-22T01:15:51.235Z,99222.95
2018-12-22T01:16:57.614Z,99220.06
2018-12-22T01:18:03.951Z,99222.47
2018-12-22T01:19:10.242Z,99232.23
2018-12-22T01:20:16.521Z,99229.02
2018-12-22T01:21:22.916Z,99228.72
2018-12-22T01:22:29.249Z,99238.53
2018-12-22T01:23:35.534Z,99233.45
2018-12-22T01:24:41.834Z,99243.68
2018-12-22T01:25:48.094Z,99242.27
2018-12-22T01:26:54.385Z,99243.45
2018-12-22T01:28:00.680Z,99244.16
2018-12-22T01:29:06.940Z,99243.43
2018-12-22T01:30:13.226Z,99254.22
2018-12-22T01:31:19.503Z,99248.63
2018-12-22T01:32:25.801Z,99243.52
2018-12-22T01:33:32.045Z,99251.52
2018-12-22T01:34:38.312Z,99250.02
2018-12-22T01:35:44.602Z,99258.27
2018-12-22T01:36:50.903Z,99264.00
2018-12-22T01:37:57.206Z,99261.88
2018-12-22T01:39:03.095Z,99265.42
2018-12-22T01:40:09.375Z,99267.09
2018-12-22T01:41:15.700Z,99266.27
2018-12-22T01:42:22.230Z,99271.21
2018-12-22T01:43:28.573Z,99272.67
2018-12-22T01:44:34.837Z,99273.77
2018-12-22T01:45:41.120Z,99274.58
2018-12-22T01:46:47.414Z,99272.97
2018-12-22T01:47:53.711Z,99275.67
2018-12-22T01:49:00.009Z,99281.73
2018-12-22T01:50:05.610Z,99279.91
2018-12-22T01:51:11.948Z,99288.56
2018-12-22T01:52:17.915Z,99276.83
2018-12-22T01:53:24.214Z,99299.05
2018-12-22T01:54:30.488Z,99292.34
2018-12-22T01:55:36.792Z,99281.30
2018-12-22T01:56:43.090Z,99290.99
2018-12-22T01:57:49.379Z,99298.50
2018-12-22T01:58:56.532Z,99299.55
2018-12-22T02:00:02.452Z,99294.88
2018-12-22T02:01:08.771Z,99295.38
2018-12-22T02:02:14.039Z,99300.00
2018-12-22T02:03:19.295Z,99298.81
2018-12-22T02:04:24.557Z,99299.14
2018-12-22T02:05:30.856Z,99299.94
2018-12-22T02:06:37.239Z,99295.75
2018-12-22T02:07:43.536Z,99299.44
2018-12-22T02:08:49.797Z,99299.84
2018-12-22T02:09:56.088Z,99293.41
2018-12-22T02:11:02.425Z,99295.79
2018-12-22T02:12:08.771Z,99298.83
2018-12-22T02:13:15.070Z,99300.45
2018-12-22T02:14:21.380Z,99297.66
2018-12-22T02:15:27.652Z,99292.50
2018-12-22T02:16:33.932Z,99303.58
2018-12-22T02:17:40.230Z,99307.89
2018-12-22T02:18:46.176Z,99297.56
2018-12-22T02:19:52.444Z,99298.02
2018-12-22T02:20:58.732Z,99297.17
2018-12-22T02:22:05.053Z,99299.26
2018-12-22T02:23:11.298Z,99298.97
2018-12-22T02:24:17.570Z,99302.52
2018-12-22T02:25:23.840Z,99292.07
2018-12-22T02:26:30.249Z,99297.91
2018-12-22T02:27:35.836Z,99303.19
2018-12-22T02:28:42.101Z,99301.20
2018-12-22T02:29:48.340Z,99305.95
2018-12-22T02:30:54.631Z,99309.77
2018-12-22T02:32:00.958Z,99303.08
2018-12-22T02:33:07.208Z,99304.11
2018-12-22T02:34:13.461Z,99309.16
2018-12-22T02:35:19.764Z,99301.66
2018-12-22T02:36:26.071Z,99305.84
2018-12-22T02:37:32.414Z,99310.13
2018-12-22T02:38:38.392Z,99304.70
2018-12-22T02:39:44.727Z,99307.50
2018-12-22T02:40:51.025Z,99304.21
2018-12-22T02:41:57.314Z,99302.41
2018-12-22T02:43:03.621Z,99300.07
2018-12-22T02:44:09.924Z,99307.19
2018-12-22T02:45:16.243Z,99310.41
2018-12-22T02:46:22.544Z,99309.77
2018-12-22T02:47:28.816Z,99310.05
2018-12-22T02:48:35.113Z,99309.20
2018-12-22T02:49:41.118Z,99311.43
2018-12-22T02:50:47.520Z,99312.73
2018-12-22T02:51:54.071Z,99310.13
2018-12-22T02:53:00.403Z,99309.34
2018-12-22T02:54:06.764Z,99307.78
2018-12-22T02:55:13.112Z,99306.97
2018-12-22T02:56:19.471Z,99311.92
2018-12-22T02:57:25.835Z,99310.52
2018-12-22T02:58:32.228Z,99309.34
2018-12-22T02:59:38.521Z,99311.07
2018-12-22T03:00:44.832Z,99314.30
2018-12-22T03:01:51.142Z,99311.53
2018-12-22T03:02:57.463Z,99309.45
2018-12-22T03:04:03.792Z,99301.45
2018-12-22T03:05:10.125Z,99307.75
2018-12-22T03:06:16.480Z,99311.03
2018-12-22T03:07:23.399Z,99309.59
2018-12-22T03:08:29.706Z,99303.64
2018-12-22T03:09:36.004Z,99307.46
2018-12-22T03:10:42.303Z,99307.78
2018-12-22T03:11:48.315Z,99311.00
2018-12-22T03:12:54.659Z,99302.77
2018-12-22T03:14:01.352Z,99310.89
2018-12-22T03:15:07.339Z,99307.29
2018-12-22T03:16:13.673Z,99312.10
2018-12-22T03:17:20.028Z,99313.56
2018-12-22T03:18:26.374Z,99317.63
2018-12-22T03:19:32.756Z,99314.41
2018-12-22T03:20:39.030Z,99316.14
2018-12-22T03:21:45.341Z,99317.02
2018-12-22T03:22:51.644Z,99316.42
2018-12-22T03:23:57.962Z,99313.91
2018-12-22T03:25:03.867Z,99316.56
2018-12-22T03:26:10.182Z,99315.53
2018-12-22T03:27:16.459Z,99314.27
2018-12-22T03:28:22.821Z,99314.30
2018-12-22T03:29:30.329Z,99307.04
2018-12-22T03:30:36.627Z,99314.19
2018-12-22T03:31:43.070Z,99313.72
2018-12-22T03:32:49.247Z,99307.78
2018-12-22T03:33:55.522Z,99307.44
2018-12-22T03:35:01.830Z,99304.74
2018-12-22T03:36:08.159Z,99302.05
2018-12-22T03:37:14.470Z,99307.42
2018-12-22T03:38:20.859Z,99304.80
2018-12-22T03:39:27.228Z,99301.63
2018-12-22T03:40:33.063Z,99304.06
2018-12-22T03:41:39.374Z,99307.11
2018-12-22T03:42:45.675Z,99306.33
2018-12-22T03:43:51.961Z,99304.27
2018-12-22T03:44:58.293Z,99300.06
2018-12-22T03:46:04.566Z,99310.30
2018-12-22T03:47:10.892Z,99300.37
2018-12-22T03:48:17.183Z,99308.19
2018-12-22T03:49:23.509Z,99311.06
2018-12-22T03:50:29.848Z,99308.34
2018-12-22T03:51:36.157Z,99318.25
2018-12-22T03:52:42.486Z,99319.06
2018-12-22T03:53:48.805Z,99311.19
2018-12-22T03:54:55.098Z,99308.06
2018-12-22T03:56:01.387Z,99313.41
2018-12-22T03:57:07.666Z,99309.09
2018-12-22T03:58:13.951Z,99313.52
2018-12-22T03:59:24.810Z,99306.02
2018-12-22T04:00:26.609Z,99315.07
2018-12-22T04:01:32.906Z,99325.16
2018-12-22T04:02:39.254Z,99323.55
2018-12-22T04:03:45.547Z,99311.35
2018-12-22T04:04:51.857Z,99317.48
2018-12-22T04:05:58.164Z,99315.70
2018-12-22T04:07:04.127Z,99320.94
2018-12-22T04:08:10.467Z,99318.94
2018-12-22T04:09:16.820Z,99327.34
2018-12-22T04:10:23.080Z,99328.95
2018-12-22T04:11:29.394Z,99319.36
2018-12-22T04:12:35.682Z,99325.62
2018-12-22T04:13:41.943Z,99323.81
2018-12-22T04:14:48.227Z,99319.62
2018-12-22T04:15:54.541Z,99318.58
2018-12-22T04:17:00.911Z,99321.19
2018-12-22T04:18:07.248Z,99319.75
2018-12-22T04:19:13.513Z,99315.78
2018-12-22T04:20:19.778Z,99324.58
2018-12-22T04:21:26.107Z,99319.02
2018-12-22T04:22:32.410Z,99326.00
2018-12-22T04:23:38.729Z,99324.63
2018-12-22T04:24:44.624Z,99321.38
2018-12-22T04:25:50.889Z,99323.17
2018-12-22T04:26:57.184Z,99326.09
2018-12-22T04:28:03.182Z,99332.01
2018-12-22T04:29:09.905Z,99334.77
2018-12-22T04:30:16.226Z,99331.30
2018-12-22T04:31:22.588Z,99332.39
2018-12-22T04:32:28.974Z,99329.08
2018-12-22T04:33:35.295Z,99332.17
2018-12-22T04:34:41.584Z,99325.30
2018-12-22T04:35:47.869Z,99327.73
2018-12-22T04:36:54.176Z,99326.55
2018-12-22T04:38:00.536Z,99330.83
2018-12-22T04:39:06.216Z,99330.67
2018-12-22T04:40:12.527Z,99337.28
2018-12-22T04:41:18.834Z,99332.35
2018-12-22T04:42:25.182Z,99338.87
2018-12-22T04:43:31.638Z,99336.14
2018-12-22T04:44:37.907Z,99334.36
2018-12-22T04:45:44.226Z,99333.05
2018-12-22T04:46:50.555Z,99336.81
2018-12-22T04:47:56.856Z,99334.44
2018-12-22T04:49:03.169Z,99335.12
2018-12-22T04:50:09.489Z,99336.97
2018-12-22T04:51:15.536Z,99330.98
2018-12-22T04:52:22.022Z,99332.08
2018-12-22T04:53:28.518Z,99329.67
2018-12-22T04:54:34.831Z,99332.30
2018-12-22T04:55:41.124Z,99334.59
2018-12-22T04:56:47.428Z,99335.69
2018-12-22T04:57:53.716Z,99337.44
2018-12-22T04:59:00.099Z,99343.05
2018-12-22T05:00:05.697Z,99338.41
2018-12-22T05:01:12.039Z,99339.53
2018-12-22T05:02:18.452Z,99339.26
2018-12-22T05:03:24.816Z,99343.34
2018-12-22T05:04:31.255Z,99339.92
2018-12-22T05:05:37.529Z,99339.39
2018-12-22T05:06:43.830Z,99340.73
2018-12-22T05:07:50.178Z,99339.49
2018-12-22T05:08:56.832Z,99340.81
2018-12-22T05:10:03.359Z,99339.38
2018-12-22T05:11:09.844Z,99340.31
2018-12-22T05:12:16.532Z,99337.74
2018-12-22T05:13:22.884Z,99331.97
2018-12-22T05:14:29.217Z,99334.65
2018-12-22T05:15:36.462Z,99338.28
2018-12-22T05:16:42.820Z,99333.38
2018-12-22T05:17:49.110Z,99328.62
2018-12-22T05:18:55.360Z,99339.03
2018-12-22T05:20:01.647Z,99331.68
2018-12-22T05:21:07.978Z,99326.80
2018-12-22T05:22:13.984Z,99334.46
2018-12-22T05:23:20.287Z,99336.69
2018-12-22T05:24:26.611Z,99336.55
2018-12-22T05:25:32.929Z,99336.17
2018-12-22T05:26:39.249Z,99333.05
2018-12-22T05:27:45.536Z,99340.15
2018-12-22T05:28:51.816Z,99336.41
2018-12-22T05:29:58.118Z,99333.81
2018-12-22T05:31:04.504Z,99329.59
2018-12-22T05:32:11.819Z,99333.59
2018-12-22T05:33:18.449Z,99333.43
2018-12-22T05:34:24.804Z,99330.98
2018-12-22T05:35:31.157Z,99330.22
2018-12-22T05:36:37.472Z,99329.27
2018-12-22T05:37:43.810Z,99326.52
2018-12-22T05:38:50.167Z,99340.09
2018-12-22T05:39:56.483Z,99331.91
2018-12-22T05:41:02.756Z,99330.38
2018-12-22T05:42:09.062Z,99332.44
2018-12-22T05:43:15.417Z,99331.09
2018-12-22T05:44:21.734Z,99326.86
2018-12-22T05:45:28.015Z,99327.27
2018-12-22T05:46:34.300Z,99335.45
2018-12-22T05:47:40.625Z,99334.77
2018-12-22T05:48:47.448Z,99340.95
2018-12-22T05:49:53.911Z,99334.77
2018-12-22T05:51:00.560Z,99331.42
2018-12-22T05:52:06.872Z,99333.10
2018-12-22T05:53:13.159Z,99331.09
2018-12-22T05:54:19.403Z,99330.34
2018-12-22T05:55:25.461Z,99336.02
2018-12-22T05:56:32.740Z,99334.94
2018-12-22T05:57:39.085Z,99336.89
2018-12-22T05:58:45.450Z,99329.42
2018-12-22T06:00:00.196Z,99333.37
2018-12-22T06:00:58.124Z,99334.76
2018-12-22T06:02:04.784Z,99329.88
2018-12-22T06:03:11.238Z,99333.70
2018-12-22T06:04:17.577Z,99334.11
2018-12-22T06:05:23.960Z,99336.31
2018-12-22T06:06:30.384Z,99344.38
2018-12-22T06:07:36.738Z,99342.88
2018-12-22T06:08:43.087Z,99339.54
2018-12-22T06:09:49.445Z,99340.19
2018-12-22T06:10:55.756Z,99346.07
2018-12-22T06:12:02.132Z,99341.75
2018-12-22T06:13:08.508Z,99340.86
2018-12-22T06:14:14.827Z,99343.22
2018-12-22T06:15:21.179Z,99339.94
2018-12-22T06:16:27.489Z,99334.46
2018-12-22T06:17:33.986Z,99332.47
2018-12-22T06:18:40.204Z,99331.95
2018-12-22T06:19:46.562Z,99335.23
2018-12-22T06:20:52.957Z,99334.73
2018-12-22T06:21:59.552Z,99331.28
2018-12-22T06:23:06.489Z,99331.90
2018-12-22T06:24:12.832Z,99332.84
2018-12-22T06:25:19.208Z,99333.31
2018-12-22T06:26:26.479Z,99331.73
2018-12-22T06:27:32.850Z,99335.75
2018-12-22T06:28:39.181Z,99338.45
2018-12-22T06:29:45.467Z,99332.38
2018-12-22T06:30:51.836Z,99332.12
2018-12-22T06:31:58.758Z,99330.80
2018-12-22T06:33:05.112Z,99328.67
2018-12-22T06:34:11.432Z,99331.01
2018-12-22T06:35:17.748Z,99336.91
2018-12-22T06:36:24.269Z,99334.49
2018-12-22T06:37:30.598Z,99340.02
2018-12-22T06:38:37.301Z,99336.14
2018-12-22T06:39:44.336Z,99345.37
2018-12-22T06:40:51.274Z,99346.39
2018-12-22T06:41:59.031Z,99340.84
2018-12-22T06:43:05.977Z,99345.69
2018-12-22T06:44:16.207Z,99338.91
2018-12-22T06:45:23.713Z,99347.67
2018-12-22T06:46:30.519Z,99338.65
2018-12-22T06:47:38.169Z,99342.80
2018-12-22T06:48:45.049Z,99340.01
2018-12-22T06:49:51.364Z,99336.53
2018-12-22T06:50:57.665Z,99340.37
2018-12-22T06:52:03.980Z,99332.83
2018-12-22T06:53:10.281Z,99338.78
2018-12-22T06:54:16.614Z,99330.96
2018-12-22T06:55:22.888Z,99333.27
2018-12-22T06:56:29.242Z,99339.72
2018-12-22T06:57:35.592Z,99339.83
2018-12-22T06:58:41.918Z,99336.16
2018-12-22T06:59:48.222Z,99336.16
2018-12-22T07:00:54.580Z,99339.77
2018-12-22T07:02:01.256Z,99334.20
2018-12-22T07:03:07.646Z,99328.64
2018-12-22T07:04:13.905Z,99334.47
2018-12-22T07:05:20.204Z,99339.17
2018-12-22T07:06:26.468Z,99336.29
2018-12-22T07:07:32.769Z,99338.65
2018-12-22T07:08:39.070Z,99340.22
2018-12-22T07:09:45.425Z,99331.42
2018-12-22T07:10:51.757Z,99333.58
2018-12-22T07:11:58.128Z,99336.38
2018-12-22T07:13:04.440Z,99334.23
2018-12-22T07:14:10.721Z,99338.39
2018-12-22T07:15:17.025Z,99339.23
2018-12-22T07:16:23.292Z,99338.68
2018-12-22T07:17:29.609Z,99331.78
2018-12-22T07:18:36.060Z,99330.37
2018-12-22T07:19:42.363Z,99335.94
2018-12-22T07:20:48.762Z,99335.38
2018-12-22T07:21:55.072Z,99336.95
2018-12-22T07:23:01.427Z,99338.75
2018-12-22T07:24:07.458Z,99340.67
2018-12-22T07:25:13.792Z,99333.74
2018-12-22T07:26:20.064Z,99339.33
2018-12-22T07:27:26.377Z,99339.42
2018-12-22T07:28:32.724Z,99336.13
2018-12-22T07:29:39.000Z,99334.32
2018-12-22T07:30:45.284Z,99338.40
2018-12-22T07:31:51.606Z,99331.83
2018-12-22T07:32:57.990Z,99325.45
2018-12-22T07:34:04.298Z,99328.34
2018-12-22T07:35:10.620Z,99331.70
2018-12-22T07:36:16.539Z,99337.34
2018-12-22T07:37:22.861Z,99335.63
2018-12-22T07:38:29.194Z,99325.59
2018-12-22T07:39:35.470Z,99328.50
2018-12-22T07:40:41.816Z,99330.67
2018-12-22T07:41:48.553Z,99322.75
2018-12-22T07:42:59.247Z,99326.91
2018-12-22T07:44:07.292Z,99332.36
2018-12-22T07:45:14.787Z,99339.64
2018-12-22T07:46:22.207Z,99332.33
2018-12-22T07:47:30.654Z,99336.25
2018-12-22T07:48:37.626Z,99330.19
2018-12-22T07:49:45.429Z,99334.23
2018-12-22T07:50:52.687Z,99330.08
2018-12-22T07:52:00.291Z,99334.23
2018-12-22T07:53:07.734Z,99334.08
2018-12-22T07:54:15.054Z,99334.00
2018-12-22T07:55:23.045Z,99334.05
2018-12-22T07:56:30.451Z,99333.53
2018-12-22T07:57:39.026Z,99330.50
2018-12-22T07:58:46.372Z,99337.27
2018-12-22T07:59:53.886Z,99331.73
2018-12-22T08:01:01.414Z,99332.75
2018-12-22T08:02:09.053Z,99334.02
2018-12-22T08:03:16.625Z,99338.45
2018-12-22T08:04:23.931Z,99334.30
2018-12-22T08:05:38.719Z,99337.34
2018-12-22T08:06:41.198Z,99336.92
2018-12-22T08:07:49.621Z,99332.84
2018-12-22T08:08:56.822Z,99327.82
2018-12-22T08:10:04.450Z,99331.66
2018-12-22T08:11:11.922Z,99332.94
2018-12-22T08:12:19.461Z,99332.14
2018-12-22T08:13:28.308Z,99342.86
2018-12-22T08:14:36.456Z,99339.90
2018-12-22T08:15:43.922Z,99343.42
2018-12-22T08:16:52.504Z,99345.00
2018-12-22T08:18:00.152Z,99345.19
2018-12-22T08:19:07.665Z,99342.32
2018-12-22T08:20:14.838Z,99340.37
2018-12-22T08:21:22.233Z,99340.86
2018-12-22T08:22:30.505Z,99339.42
2018-12-22T08:23:38.116Z,99346.85
2018-12-22T08:24:45.530Z,99350.73
2018-12-22T08:25:53.226Z,99349.50
2018-12-22T08:27:00.803Z,99352.47
2018-12-22T08:28:08.896Z,99349.34
2018-12-22T08:29:17.211Z,99348.22
2018-12-22T08:30:24.589Z,99347.11
2018-12-22T08:31:31.815Z,99350.69
2018-12-22T08:32:39.848Z,99346.53
2018-12-22T08:33:48.277Z,99350.59
2018-12-22T08:34:56.360Z,99353.63
2018-12-22T08:36:03.819Z,99351.60
2018-12-22T08:37:11.222Z,99353.58
2018-12-22T08:38:18.796Z,99355.58
2018-12-22T08:39:26.665Z,99354.95
2018-12-22T08:40:34.173Z,99355.44
2018-12-22T08:41:41.550Z,99356.14
2018-12-22T08:42:49.880Z,99360.62
2018-12-22T08:43:58.629Z,99364.02
2018-12-22T08:45:05.945Z,99363.30
2018-12-22T08:46:14.233Z,99364.84
2018-12-22T09:49:03.933Z,99474.17
2018-12-22T09:50:09.793Z,99475.33
2018-12-22T09:51:16.143Z,99473.09
2018-12-22T09:52:22.449Z,99482.25
2018-12-22T09:53:28.825Z,99490.91
2018-12-22T09:54:35.122Z,99481.48
2018-12-22T09:55:41.444Z,99489.06
2018-12-22T09:56:47.744Z,99488.58
2018-12-22T09:57:54.079Z,99492.27
2018-12-22T09:59:00.440Z,99502.97
2018-12-22T10:00:06.090Z,99504.52
2018-12-22T10:01:12.380Z,99511.52
2018-12-22T10:02:18.705Z,99504.72
2018-12-22T10:03:25.130Z,99515.13
2018-12-22T10:04:31.516Z,99516.59
2018-12-22T10:05:37.685Z,99522.22
2018-12-22T10:06:44.023Z,99513.50
2018-12-22T10:07:50.388Z,99517.48
2018-12-22T10:08:56.746Z,99515.02
2018-12-22T10:10:02.678Z,99514.45
2018-12-22T10:11:08.383Z,99519.44
2018-12-22T10:12:14.760Z,99520.46
2018-12-22T10:13:21.126Z,99527.52
2018-12-22T10:14:27.437Z,99529.83
2018-12-22T10:15:33.797Z,99523.58
2018-12-22T10:16:40.268Z,99524.56
2018-12-22T10:17:49.103Z,99525.23
2018-12-22T10:18:55.900Z,99529.91
2018-12-22T10:20:02.265Z,99534.46
2018-12-22T10:21:08.677Z,99530.23
2018-12-22T10:22:15.887Z,99533.67
2018-12-22T10:23:22.234Z,99534.73
2018-12-22T10:24:28.905Z,99548.02
2018-12-22T10:25:35.387Z,99548.60
2018-12-22T10:26:41.862Z,99553.30
2018-12-22T10:27:48.187Z,99554.75
2018-12-22T10:28:54.726Z,99554.97
2018-12-22T10:30:01.339Z,99570.34
2018-12-22T10:31:07.957Z,99578.86
2018-12-22T10:32:14.313Z,99561.03
2018-12-22T10:33:20.690Z,99565.03
2018-12-22T10:34:26.677Z,99566.00
2018-12-22T10:35:32.744Z,99573.64
2018-12-22T10:36:39.115Z,99572.84
2018-12-22T10:37:45.529Z,99582.50
2018-12-22T10:38:51.903Z,99585.17
2018-12-22T10:39:58.234Z,99586.77
2018-12-22T10:41:04.648Z,99590.09
2018-12-22T10:42:11.064Z,99594.69
2018-12-22T10:43:17.381Z,99591.74
2018-12-22T10:44:23.738Z,99593.29
2018-12-22T10:45:30.035Z,99593.56
2018-12-22T10:46:36.460Z,99597.16
2018-12-22T10:47:42.819Z,99600.81
2018-12-22T10:48:49.263Z,99605.00
2018-12-22T10:49:55.651Z,99608.66
2018-12-22T10:51:02.683Z,99610.30
2018-12-22T10:52:09.462Z,99602.77
2018-12-22T10:53:16.385Z,99604.20
2018-12-22T10:54:24.618Z,99598.76
2018-12-22T10:55:32.292Z,99604.03
2018-12-22T10:56:41.351Z,99598.77
2018-12-22T10:57:48.815Z,99604.30
2018-12-22T10:58:56.563Z,99600.62
2018-12-22T11:00:03.644Z,99599.42
2018-12-22T11:01:12.988Z,99608.39
2018-12-22T11:02:20.288Z,99614.63
2018-12-22T11:03:27.802Z,99624.98
2018-12-22T11:04:35.761Z,99624.43
2018-12-22T11:05:44.299Z,99628.59
2018-12-22T11:06:51.630Z,99631.50
2018-12-22T11:07:59.396Z,99634.11
2018-12-22T11:09:06.125Z,99630.70
2018-12-22T11:10:14.382Z,99634.61
2018-12-22T11:11:21.542Z,99638.78
2018-12-22T11:12:28.797Z,99639.80
2018-12-22T11:13:36.743Z,99640.48
2018-12-22T11:14:44.123Z,99647.92
2018-12-22T11:15:51.705Z,99651.33
2018-12-22T11:16:59.020Z,99650.80
2018-12-22T11:18:06.573Z,99655.05
2018-12-22T11:19:13.948Z,99657.80
2018-12-22T11:20:22.746Z,99664.67
2018-12-22T11:21:30.191Z,99663.05
2018-12-22T11:22:37.774Z,99664.50
2018-12-22T11:23:45.351Z,99664.16
2018-12-22T11:24:53.578Z,99667.88
2018-12-22T11:26:01.462Z,99672.67
2018-12-22T11:27:09.270Z,99669.65
2018-12-22T11:28:16.583Z,99681.27
2018-12-22T11:29:24.215Z,99676.84
2018-12-22T11:30:32.830Z,99682.38
2018-12-22T11:31:40.944Z,99681.65
2018-12-22T11:32:48.673Z,99688.75
2018-12-22T11:33:56.177Z,99686.33
2018-12-22T11:35:03.709Z,99685.08
2018-12-22T11:36:10.969Z,99693.91
2018-12-22T11:37:19.853Z,99697.76
2018-12-22T11:38:27.740Z,99696.48
2018-12-22T11:39:36.295Z,99707.02
2018-12-22T11:40:43.722Z,99699.18
2018-12-22T11:41:51.041Z,99696.48
2018-12-22T11:42:58.287Z,99701.81
2018-12-22T11:44:06.482Z,99701.55
2018-12-22T11:45:13.896Z,99707.14
2018-12-22T11:46:21.412Z,99707.45
2018-12-22T11:47:30.129Z,99719.89
2018-12-22T11:48:37.593Z,99720.05
2018-12-22T11:49:46.411Z,99727.36
2018-12-22T11:50:53.755Z,99723.61
2018-12-22T11:52:02.085Z,99737.05
2018-12-22T11:53:09.435Z,99736.70
2018-12-22T11:54:17.036Z,99737.73
2018-12-22T11:55:24.259Z,99738.02
2018-12-22T11:56:32.927Z,99745.74
2018-12-22T11:57:40.372Z,99750.40
2018-12-22T11:58:47.836Z,99747.59
2018-12-22T11:59:55.166Z,99757.16
2018-12-22T12:01:02.484Z,99760.58
2018-12-22T12:02:10.096Z,99768.83
2018-12-22T12:03:16.439Z,99766.51
2018-12-22T12:04:24.075Z,99773.78
2018-12-22T12:05:33.105Z,99776.75
2018-12-22T12:06:41.506Z,99770.98
2018-12-22T12:07:48.961Z,99773.92
2018-12-22T12:08:55.838Z,99774.16
2018-12-22T12:10:02.237Z,99781.16
2018-12-22T12:11:08.625Z,99780.23
2018-12-22T12:12:14.649Z,99784.86
2018-12-22T12:13:21.022Z,99782.16
2018-12-22T12:14:26.761Z,99794.09
2018-12-22T12:15:32.486Z,99785.87
2018-12-22T12:16:38.566Z,99791.48
2018-12-22T12:18:01.182Z,99791.75
2018-12-22T12:19:07.978Z,99792.14
2018-12-22T12:20:14.414Z,99797.02
2018-12-22T12:21:20.769Z,99805.52
2018-12-22T12:22:27.164Z,99803.22
2018-12-22T12:23:33.574Z,99813.11
2018-12-22T12:24:39.973Z,99811.98
2018-12-22T12:25:46.323Z,99813.98
2018-12-22T12:26:52.288Z,99816.57
2018-12-22T12:27:58.701Z,99821.77
2018-12-22T12:29:05.115Z,99823.73
2018-12-22T12:30:11.059Z,99819.34
2018-12-22T12:31:17.454Z,99821.77
2018-12-22T12:32:23.843Z,99814.41
2018-12-22T12:33:30.233Z,99828.39
2018-12-22T12:34:36.671Z,99833.83
2018-12-22T12:35:43.164Z,99828.78
2018-12-22T12:36:49.472Z,99826.76
2018-12-22T12:37:55.842Z,99832.67
2018-12-22T12:39:02.249Z,99839.97
2018-12-22T12:40:07.859Z,99838.95
2018-12-22T12:41:14.207Z,99838.23
2018-12-22T12:42:20.548Z,99839.14
2018-12-22T12:43:26.935Z,99850.59
2018-12-22T12:44:33.349Z,99850.31
2018-12-22T12:45:38.973Z,99853.03
2018-12-22T12:46:45.284Z,99853.81
2018-12-22T12:47:51.693Z,99855.05
2018-12-22T12:48:58.108Z,99854.00
2018-12-22T12:50:03.859Z,99858.84
2018-12-22T12:51:10.252Z,99862.10
2018-12-22T12:52:16.616Z,99866.83
2018-12-22T12:53:22.569Z,99866.33
2018-12-22T12:54:29.002Z,99872.77
2018-12-22T12:55:35.315Z,99876.16
2018-12-22T12:56:41.261Z,99880.96
2018-12-22T12:57:47.597Z,99885.22
2018-12-22T12:58:53.913Z,99888.47
2018-12-22T13:00:00.302Z,99896.17
2018-12-22T13:01:06.616Z,99889.00
2018-12-22T13:02:12.952Z,99892.58
2018-12-22T13:03:19.271Z,99890.30
2018-12-22T13:04:25.618Z,99897.14
2018-12-22T13:05:31.990Z,99897.62
2018-12-22T13:06:38.361Z,99900.20
2018-12-22T13:07:45.277Z,99907.70
2018-12-22T13:08:51.643Z,99904.73
2018-12-22T13:09:58.402Z,99904.30
2018-12-22T13:11:04.407Z,99913.66
2018-12-22T13:12:10.345Z,99908.96
2018-12-22T13:13:18.584Z,99908.77
2018-12-22T13:14:24.964Z,99911.34
2018-12-22T13:15:31.332Z,99917.55
2018-12-22T13:16:37.663Z,99914.94
2018-12-22T13:17:43.951Z,99918.46
2018-12-22T13:18:50.275Z,99930.38
2018-12-22T13:19:56.706Z,99923.23
2018-12-22T13:21:02.489Z,99924.95
2018-12-22T13:22:08.825Z,99927.23
2018-12-22T13:23:15.162Z,99930.05
2018-12-22T13:24:21.549Z,99939.08
2018-12-22T13:25:27.838Z,99934.42
2018-12-22T13:26:36.846Z,99935.70
2018-12-22T13:27:40.474Z,99945.84
2018-12-22T13:28:46.808Z,99945.80
2018-12-22T13:29:53.150Z,99943.25
2018-12-22T13:30:59.472Z,99943.53
2018-12-22T13:32:09.468Z,99951.97
2018-12-22T13:33:12.240Z,99948.56
2018-12-22T13:34:18.603Z,99949.08
2018-12-22T13:35:24.914Z,99948.11
2018-12-22T13:36:34.823Z,99955.36
2018-12-22T13:37:37.602Z,99959.23
2018-12-22T13:38:43.228Z,99959.19
2018-12-22T13:39:49.638Z,99955.08
2018-12-22T13:40:55.940Z,99955.95
2018-12-22T13:42:02.269Z,99950.94
2018-12-22T13:43:08.636Z,99961.58
2018-12-22T13:44:14.909Z,99965.32
2018-12-22T13:45:21.281Z,99958.29
2018-12-22T13:46:27.594Z,99961.97
2018-12-22T13:47:34.262Z,99963.02
2018-12-22T13:48:40.077Z,99968.71
2018-12-22T13:49:46.649Z,99966.69
2018-12-22T13:50:53.040Z,99976.00
2018-12-22T13:51:59.094Z,99977.12
2018-12-22T13:53:05.445Z,99985.28
2018-12-22T13:54:11.795Z,99985.77
2018-12-22T13:55:18.172Z,99985.17
2018-12-22T13:56:24.479Z,99983.31
2018-12-22T13:57:30.804Z,99990.81
2018-12-22T13:58:37.572Z,99992.53
2018-12-22T13:59:43.573Z,99997.83
2018-12-22T14:00:49.884Z,99991.88
2018-12-22T14:01:55.921Z,99988.35
2018-12-22T14:03:02.172Z,99993.95
2018-12-22T14:04:08.907Z,99998.30